Time;durP1;ratioP1;P1;durP2;ratioP2;P2;SDS_P1;SDS_P2;PMS_P1;PMS_P2;Temp;Humidity;BMP_temperature;BMP_pressure;BME280_temperature;BME280_humidity;BME280_pressure;Samples;Min_cycle;Max_cycle;Signal;HPM_P1;HPM_P2
2023/06/01 00:02:03;;;;;;;2.85;2.65;;;20.50;59.20;;;;;;4975826;28;20566;-67
2023/06/01 00:04:29;;;;;;;2.88;2.67;;;20.60;59.20;;;;;;4976810;28;20205;-67
2023/06/01 00:06:56;;;;;;;3.30;3.00;;;20.60;59.20;;;;;;4982530;28;20711;-67
2023/06/01 00:09:21;;;;;;;2.90;2.60;;;20.60;59.20;;;;;;4975556;28;20201;-67
2023/06/01 00:11:47;;;;;;;3.30;3.00;;;20.60;59.20;;;;;;4975170;28;20282;-67
2023/06/01 00:14:13;;;;;;;2.90;2.70;;;20.60;59.10;;;;;;4982204;28;20189;-67
2023/06/01 00:16:39;;;;;;;3.60;2.58;;;20.50;59.10;;;;;;4976168;28;20189;-68
2023/06/01 00:19:05;;;;;;;3.38;2.72;;;20.50;59.10;;;;;;4974893;28;20240;-67
2023/06/01 00:21:32;;;;;;;4.47;3.10;;;20.50;59.10;;;;;;4975054;28;20194;-67
2023/06/01 00:23:59;;;;;;;3.10;2.80;;;20.60;59.20;;;;;;4991593;28;20177;-67
2023/06/01 00:26:25;;;;;;;3.00;2.80;;;20.50;59.10;;;;;;4975086;28;20232;-67
2023/06/01 00:28:52;;;;;;;3.10;2.72;;;20.50;59.10;;;;;;4975031;28;20197;-67
2023/06/01 00:31:18;;;;;;;3.08;2.78;;;20.50;59.10;;;;;;4976101;28;20200;-67
2023/06/01 00:33:44;;;;;;;2.65;2.40;;;20.50;59.10;;;;;;4974390;28;20277;-67
2023/06/01 00:36:10;;;;;;;2.75;2.55;;;20.50;59.10;;;;;;4980018;28;20220;-67
2023/06/01 00:38:36;;;;;;;3.28;3.05;;;20.50;59.00;;;;;;4974314;28;20213;-70
2023/06/01 00:41:01;;;;;;;3.25;2.95;;;20.50;59.10;;;;;;4979922;28;20181;-67
2023/06/01 00:43:27;;;;;;;3.25;2.95;;;20.50;59.10;;;;;;4977530;28;20217;-67
2023/06/01 00:45:54;;;;;;;2.85;2.65;;;20.50;59.10;;;;;;4974704;28;20177;-67
2023/06/01 00:48:20;;;;;;;2.85;2.53;;;20.50;59.10;;;;;;4990655;28;20290;-68
2023/06/01 00:50:47;;;;;;;3.40;2.95;;;20.50;59.10;;;;;;4990660;28;20190;-67
2023/06/01 00:53:19;;;;;;;2.80;2.60;;;20.50;59.10;;;;;;4989084;28;20660;-68
2023/06/01 00:55:46;;;;;;;2.80;2.60;;;20.50;59.10;;;;;;4975281;28;20236;-68
2023/06/01 00:58:13;;;;;;;3.13;2.80;;;20.50;59.10;;;;;;4990710;28;20272;-67
2023/06/01 01:00:42;;;;;;;3.30;3.00;;;20.50;59.10;;;;;;4990483;28;20193;-67
2023/06/01 01:03:09;;;;;;;2.95;2.65;;;20.50;59.10;;;;;;4974851;28;20204;-67
2023/06/01 01:05:40;;;;;;;3.20;2.90;;;20.50;59.10;;;;;;4990470;28;20569;-67
2023/06/01 01:08:25;;;;;;;2.80;2.55;;;20.50;59.00;;;;;;4974128;28;20251;-67
2023/06/01 01:11:17;;;;;;;2.90;2.70;;;20.50;59.10;;;;;;4974388;28;20197;-67
2023/06/01 01:14:05;;;;;;;2.72;2.42;;;20.50;59.10;;;;;;4982270;28;20190;-67
2023/06/01 01:16:46;;;;;;;3.47;3.17;;;20.50;59.00;;;;;;4990462;28;20194;-67
2023/06/01 01:19:41;;;;;;;2.85;2.65;;;20.50;59.10;;;;;;4990183;28;20296;-67
2023/06/01 01:22:43;;;;;;;2.70;2.50;;;20.50;59.10;;;;;;4979547;28;20184;-67
2023/06/01 01:25:21;;;;;;;2.97;2.70;;;20.50;59.00;;;;;;4968473;28;20216;-66
2023/06/01 01:28:38;;;;;;;3.30;3.00;;;20.50;59.00;;;;;;4989908;28;20205;-67
2023/06/01 01:31:08;;;;;;;3.28;3.08;;;20.50;59.00;;;;;;4956789;28;20201;-67
2023/06/01 01:33:36;;;;;;;2.95;2.70;;;20.50;59.00;;;;;;4974623;28;20672;-67
2023/06/01 01:36:05;;;;;;;3.20;2.90;;;20.50;59.00;;;;;;4985901;28;20191;-67
2023/06/01 01:38:35;;;;;;;3.03;2.72;;;20.50;59.00;;;;;;4976173;28;20214;-68
2023/06/01 01:41:02;;;;;;;3.58;2.85;;;20.50;59.00;;;;;;4973825;28;20273;-67
2023/06/01 01:43:29;;;;;;;3.17;2.88;;;20.50;59.00;;;;;;4973524;28;20221;-68
2023/06/01 01:46:26;;;;;;;3.05;2.75;;;20.50;59.10;;;;;;4970375;28;20264;-67
2023/06/01 01:49:12;;;;;;;3.10;2.70;;;20.50;59.00;;;;;;4973210;28;20329;-67
2023/06/01 01:51:53;;;;;;;4.10;2.88;;;20.50;59.10;;;;;;4979619;28;20190;-67
2023/06/01 01:54:23;;;;;;;3.40;3.10;;;20.50;59.10;;;;;;4989600;28;20193;-67
2023/06/01 01:56:53;;;;;;;3.25;2.95;;;20.50;59.00;;;;;;4973108;28;20217;-67
2023/06/01 01:59:19;;;;;;;2.72;2.53;;;20.50;59.00;;;;;;4981217;28;20352;-67
2023/06/01 02:01:46;;;;;;;4.15;2.85;;;20.50;59.00;;;;;;4989401;28;20185;-68
2023/06/01 02:04:12;;;;;;;4.07;2.90;;;20.50;59.00;;;;;;4973373;28;20188;-67
2023/06/01 02:06:38;;;;;;;3.25;2.95;;;20.40;58.90;;;;;;4973279;28;20276;-68
2023/06/01 02:09:07;;;;;;;3.35;2.80;;;20.40;58.90;;;;;;4973096;28;20185;-67
2023/06/01 02:11:34;;;;;;;2.80;2.60;;;20.40;58.90;;;;;;4989243;28;20288;-67
2023/06/01 02:14:01;;;;;;;2.80;2.50;;;20.50;59.00;;;;;;4997451;28;20256;-67
2023/06/01 02:16:26;;;;;;;3.78;2.83;;;20.50;59.00;;;;;;4981456;28;20284;-67
2023/06/01 02:18:53;;;;;;;3.03;2.80;;;20.50;59.00;;;;;;4988462;28;20293;-67
2023/06/01 02:21:20;;;;;;;2.65;2.45;;;20.50;59.00;;;;;;4972769;28;20189;-67
2023/06/01 02:23:47;;;;;;;2.90;2.60;;;20.40;59.00;;;;;;4971761;28;20192;-67
2023/06/01 02:26:12;;;;;;;2.97;2.75;;;20.50;59.10;;;;;;4978520;28;20185;-68
2023/06/01 02:28:39;;;;;;;3.22;2.63;;;20.50;59.10;;;;;;4975418;28;20213;-67
2023/06/01 02:31:05;;;;;;;3.22;2.65;;;20.40;59.00;;;;;;4972818;28;20200;-67
2023/06/01 02:33:32;;;;;;;2.65;2.45;;;20.50;59.10;;;;;;4972515;28;20192;-68
2023/06/01 02:35:59;;;;;;;2.92;2.72;;;20.40;59.00;;;;;;4972733;28;20193;-67
2023/06/01 02:38:26;;;;;;;2.90;2.70;;;20.40;58.90;;;;;;4972648;28;20209;-67
2023/06/01 02:40:52;;;;;;;2.60;2.40;;;20.50;59.10;;;;;;4972843;28;20214;-67
2023/06/01 02:43:18;;;;;;;2.70;2.50;;;20.50;59.00;;;;;;4969342;28;20190;-67
2023/06/01 02:45:44;;;;;;;3.22;2.92;;;20.40;59.00;;;;;;4988582;28;20190;-67
2023/06/01 02:48:10;;;;;;;3.33;3.03;;;20.40;59.00;;;;;;4980390;28;20205;-67
2023/06/01 02:50:36;;;;;;;3.17;2.88;;;20.50;59.10;;;;;;4988790;28;20680;-67
2023/06/01 02:53:02;;;;;;;3.35;3.05;;;20.40;58.90;;;;;;4972513;28;20220;-67
2023/06/01 02:55:28;;;;;;;3.22;2.85;;;20.40;59.00;;;;;;4973628;28;20213;-67
2023/06/01 02:58:14;;;;;;;2.97;2.75;;;20.40;58.90;;;;;;4965823;28;20235;-67
2023/06/01 03:00:50;;;;;;;3.13;2.83;;;20.40;59.00;;;;;;4972341;28;20201;-68
2023/06/01 03:03:16;;;;;;;3.20;2.90;;;20.40;59.00;;;;;;4972421;28;20197;-67
2023/06/01 03:05:47;;;;;;;2.67;2.47;;;20.40;59.00;;;;;;4988274;28;20185;-67
2023/06/01 03:08:34;;;;;;;2.90;2.70;;;20.40;59.00;;;;;;4980410;28;20220;-67
2023/06/01 03:11:00;;;;;;;3.38;3.08;;;20.40;59.00;;;;;;4964953;28;20192;-68
2023/06/01 03:13:32;;;;;;;3.70;2.90;;;20.40;59.00;;;;;;4972470;28;20185;-67
2023/06/01 03:15:57;;;;;;;3.55;3.25;;;20.40;59.00;;;;;;4988737;28;20570;-67
2023/06/01 03:18:23;;;;;;;3.08;2.88;;;20.40;59.10;;;;;;4988223;28;20206;-67
2023/06/01 03:20:49;;;;;;;3.40;3.10;;;20.40;59.00;;;;;;4974498;28;20624;-68
2023/06/01 03:23:16;;;;;;;4.18;3.20;;;20.40;59.00;;;;;;4978200;28;20181;-69
2023/06/01 03:25:42;;;;;;;3.80;3.08;;;20.40;59.00;;;;;;4972121;28;20208;-70
2023/06/01 03:28:08;;;;;;;3.22;2.63;;;20.40;59.00;;;;;;4972383;28;20217;-67
2023/06/01 03:30:34;;;;;;;2.97;2.78;;;20.40;59.00;;;;;;4982920;28;20185;-72
2023/06/01 03:32:59;;;;;;;3.03;2.80;;;20.40;59.10;;;;;;4976296;28;20193;-66
2023/06/01 03:35:26;;;;;;;2.80;2.58;;;20.40;59.00;;;;;;4992178;28;20193;-68
2023/06/01 03:37:52;;;;;;;3.40;3.10;;;20.40;59.00;;;;;;4991942;28;20204;-68
2023/06/01 03:40:19;;;;;;;4.53;2.72;;;20.40;59.10;;;;;;4976922;28;20217;-68
2023/06/01 03:42:48;;;;;;;2.95;2.72;;;20.40;59.10;;;;;;4977022;28;20213;-68
2023/06/01 03:45:17;;;;;;;3.13;2.92;;;20.40;59.10;;;;;;4982814;28;20186;-68
2023/06/01 03:47:44;;;;;;;2.90;2.63;;;20.40;59.10;;;;;;4993785;28;20205;-68
2023/06/01 03:50:10;;;;;;;2.83;2.60;;;20.40;59.10;;;;;;4983699;28;20213;-68
2023/06/01 03:52:37;;;;;;;2.88;2.67;;;20.40;59.10;;;;;;4975542;28;20240;-68
2023/06/01 03:55:08;;;;;;;3.30;3.00;;;20.40;59.10;;;;;;4987903;28;20280;-67
2023/06/01 03:57:54;;;;;;;3.80;3.28;;;20.40;59.10;;;;;;4989609;28;20668;-68
2023/06/01 04:00:20;;;;;;;3.70;3.40;;;20.40;59.10;;;;;;4980802;28;20221;-69
2023/06/01 04:02:58;;;;;;;3.17;2.88;;;20.40;59.10;;;;;;4979293;28;20268;-68
2023/06/01 04:05:26;;;;;;;3.30;3.00;;;20.40;59.10;;;;;;4980299;28;20185;-68
2023/06/01 04:07:54;;;;;;;3.05;2.83;;;20.40;59.10;;;;;;4974170;28;20221;-71
2023/06/01 04:10:21;;;;;;;2.90;2.70;;;20.40;59.20;;;;;;4975234;28;20186;-68
2023/06/01 04:12:49;;;;;;;3.10;2.80;;;20.40;59.10;;;;;;4993077;28;20194;-68
2023/06/01 04:15:17;;;;;;;2.88;2.58;;;20.40;59.10;;;;;;4986740;28;20199;-68
2023/06/01 04:17:44;;;;;;;3.80;3.10;;;20.40;59.10;;;;;;4977502;28;20644;-68
2023/06/01 04:20:13;;;;;;;3.10;2.78;;;20.40;59.20;;;;;;4990893;28;20233;-68
2023/06/01 04:22:40;;;;;;;3.55;3.25;;;20.40;59.20;;;;;;4975230;28;20674;-68
2023/06/01 04:25:11;;;;;;;3.17;2.97;;;20.40;59.20;;;;;;4975565;28;20269;-68
2023/06/01 04:27:46;;;;;;;3.30;3.03;;;20.30;59.10;;;;;;4983142;28;20295;-68
2023/06/01 04:30:15;;;;;;;2.35;2.15;;;20.40;59.20;;;;;;4981482;28;20193;-68
2023/06/01 04:32:43;;;;;;;3.30;3.00;;;20.40;59.20;;;;;;4991475;28;20213;-68
2023/06/01 04:35:10;;;;;;;3.20;2.90;;;20.40;59.20;;;;;;4982919;28;20252;-68
2023/06/01 04:37:41;;;;;;;3.25;2.95;;;20.40;59.20;;;;;;4983171;28;20236;-68
2023/06/01 04:40:12;;;;;;;3.47;3.17;;;20.40;59.20;;;;;;4971642;28;20205;-67
2023/06/01 04:42:41;;;;;;;3.40;3.10;;;20.40;59.20;;;;;;5001556;28;20671;-69
2023/06/01 04:45:10;;;;;;;3.17;2.90;;;20.40;59.30;;;;;;4991016;28;20666;-68
2023/06/01 04:47:39;;;;;;;3.25;2.95;;;20.40;59.30;;;;;;4974797;28;20308;-67
2023/06/01 04:50:10;;;;;;;3.20;2.90;;;20.40;59.20;;;;;;4975019;28;20654;-68
2023/06/01 04:52:37;;;;;;;3.40;2.85;;;20.30;59.20;;;;;;4982471;28;20188;-68
2023/06/01 04:55:06;;;;;;;3.10;2.78;;;20.40;59.20;;;;;;4974481;28;20186;-68
2023/06/01 04:57:35;;;;;;;3.25;2.95;;;20.30;59.20;;;;;;4974317;28;20228;-68
2023/06/01 05:00:11;;;;;;;3.22;2.92;;;20.40;59.30;;;;;;5006645;28;20287;-68
2023/06/01 05:02:38;;;;;;;2.95;2.72;;;20.40;59.30;;;;;;4986102;28;20181;-68
2023/06/01 05:05:05;;;;;;;3.10;2.80;;;20.40;59.30;;;;;;4974335;28;20233;-68
2023/06/01 05:07:31;;;;;;;3.40;2.80;;;20.40;59.30;;;;;;4979459;28;20218;-68
2023/06/01 05:09:58;;;;;;;3.50;3.20;;;20.40;59.30;;;;;;4973506;28;20248;-68
2023/06/01 05:12:24;;;;;;;3.70;3.13;;;20.40;59.30;;;;;;4974685;28;20568;-68
2023/06/01 05:14:50;;;;;;;2.88;2.60;;;20.40;59.30;;;;;;4982177;28;20198;-68
2023/06/01 05:17:16;;;;;;;3.35;3.05;;;20.30;59.20;;;;;;4987223;28;20212;-68
2023/06/01 05:19:42;;;;;;;4.32;3.15;;;20.40;59.30;;;;;;4976914;28;20206;-68
2023/06/01 05:22:07;;;;;;;3.00;2.70;;;20.40;59.30;;;;;;4977975;28;20188;-67
2023/06/01 05:24:33;;;;;;;3.72;3.33;;;20.30;59.20;;;;;;4993337;28;20676;-67
2023/06/01 05:26:59;;;;;;;2.95;2.65;;;20.40;59.30;;;;;;4985324;28;20220;-68
2023/06/01 05:29:25;;;;;;;3.00;2.80;;;20.40;59.40;;;;;;4993326;28;20185;-70
2023/06/01 05:31:51;;;;;;;2.78;2.58;;;20.40;59.40;;;;;;4975922;28;20201;-68
2023/06/01 05:34:17;;;;;;;2.92;2.63;;;20.30;59.30;;;;;;4995129;28;20202;-68
2023/06/01 05:36:43;;;;;;;2.85;2.65;;;20.40;59.30;;;;;;4977799;28;20227;-68
2023/06/01 05:39:10;;;;;;;2.97;2.78;;;20.40;59.90;;;;;;4974292;28;20213;-68
2023/06/01 05:41:36;;;;;;;3.30;3.00;;;20.30;59.30;;;;;;4981318;28;20200;-68
2023/06/01 05:44:02;;;;;;;3.20;2.90;;;20.30;59.30;;;;;;4973458;28;20182;-68
2023/06/01 05:46:28;;;;;;;3.10;2.85;;;20.30;59.30;;;;;;4973353;28;20186;-68
2023/06/01 05:48:55;;;;;;;2.75;2.55;;;20.30;59.30;;;;;;4989580;28;20190;-68
2023/06/01 05:51:21;;;;;;;3.25;2.85;;;20.40;59.40;;;;;;4986917;28;20196;-68
2023/06/01 05:53:47;;;;;;;3.05;2.75;;;20.40;59.50;;;;;;4976580;28;20195;-68
2023/06/01 05:56:12;;;;;;;3.85;3.47;;;20.40;59.40;;;;;;4984644;28;20200;-68
2023/06/01 05:58:38;;;;;;;3.63;3.30;;;20.30;59.40;;;;;;4977012;28;20224;-70
2023/06/01 06:01:04;;;;;;;3.30;3.10;;;20.40;59.50;;;;;;4972952;28;20577;-68
2023/06/01 06:03:30;;;;;;;3.35;3.05;;;20.40;59.50;;;;;;4973121;28;20189;-68
2023/06/01 06:05:56;;;;;;;3.13;2.85;;;20.30;59.40;;;;;;4982945;28;20192;-68
2023/06/01 06:08:22;;;;;;;3.53;3.10;;;20.30;59.40;;;;;;4984330;28;20212;-68
2023/06/01 06:10:47;;;;;;;3.40;3.10;;;20.40;59.50;;;;;;4975583;28;20248;-68
2023/06/01 06:13:14;;;;;;;3.25;2.95;;;20.30;59.40;;;;;;4973192;28;20186;-68
2023/06/01 06:15:40;;;;;;;2.97;2.72;;;20.40;59.50;;;;;;4981061;28;20196;-68
2023/06/01 06:18:06;;;;;;;3.45;2.90;;;20.30;59.40;;;;;;4972765;28;20589;-67
2023/06/01 06:20:31;;;;;;;3.38;3.08;;;20.40;59.60;;;;;;4995462;28;20208;-68
2023/06/01 06:22:57;;;;;;;3.20;2.90;;;20.40;59.60;;;;;;4974757;28;20193;-68
2023/06/01 06:25:23;;;;;;;3.17;2.97;;;20.30;59.60;;;;;;4972841;28;20193;-68
2023/06/01 06:27:49;;;;;;;4.10;3.45;;;20.30;59.60;;;;;;4980657;28;20244;-68
2023/06/01 06:30:15;;;;;;;3.33;3.03;;;20.30;59.60;;;;;;4985212;28;20204;-68
2023/06/01 06:32:40;;;;;;;4.72;3.10;;;20.40;59.60;;;;;;4984189;28;20204;-68
2023/06/01 06:35:07;;;;;;;3.75;3.28;;;20.40;59.70;;;;;;4973029;28;20185;-67
2023/06/01 06:37:32;;;;;;;3.10;2.80;;;20.30;59.60;;;;;;4972856;28;20218;-67
2023/06/01 06:39:58;;;;;;;3.45;3.15;;;20.40;59.80;;;;;;4971236;28;20210;-67
2023/06/01 06:42:25;;;;;;;3.35;2.95;;;20.30;59.70;;;;;;4972559;28;20676;-69
2023/06/01 06:44:50;;;;;;;4.07;3.08;;;20.40;59.80;;;;;;4989368;28;20198;-68
2023/06/01 06:47:19;;;;;;;3.25;2.90;;;20.40;59.80;;;;;;5000053;28;20267;-68
2023/06/01 06:49:45;;;;;;;3.10;2.85;;;20.40;59.90;;;;;;4984037;28;20198;-67
2023/06/01 06:52:11;;;;;;;3.92;3.22;;;20.30;59.70;;;;;;4955343;28;20197;-67
2023/06/01 06:54:42;;;;;;;3.40;3.10;;;20.30;59.70;;;;;;4988680;28;20201;-68
2023/06/01 06:57:08;;;;;;;3.35;3.05;;;20.40;59.80;;;;;;4983257;28;20266;-68
2023/06/01 06:59:35;;;;;;;3.42;3.13;;;20.40;59.80;;;;;;4992843;28;20307;-68
2023/06/01 07:02:00;;;;;;;4.47;3.50;;;20.40;59.80;;;;;;4982913;28;20194;-68
2023/06/01 07:04:28;;;;;;;3.15;2.92;;;20.40;59.90;;;;;;4978196;28;20189;-67
2023/06/01 07:06:53;;;;;;;3.60;3.30;;;20.30;59.80;;;;;;4983391;28;20205;-68
2023/06/01 07:09:19;;;;;;;3.55;3.25;;;20.30;59.80;;;;;;4995408;28;20197;-67
2023/06/01 07:11:47;;;;;;;4.57;3.17;;;20.30;59.80;;;;;;4988409;28;20198;-68
2023/06/01 07:14:16;;;;;;;3.58;3.13;;;20.40;59.90;;;;;;4977416;28;20566;-67
2023/06/01 07:16:41;;;;;;;3.55;3.25;;;20.40;60.00;;;;;;4985052;28;20204;-67
2023/06/01 07:19:08;;;;;;;3.60;3.30;;;20.40;60.00;;;;;;4980391;28;20213;-68
2023/06/01 07:21:36;;;;;;;3.95;3.10;;;20.40;60.10;;;;;;4977230;28;20252;-68
2023/06/01 07:24:02;;;;;;;3.50;3.20;;;20.40;60.10;;;;;;4971927;28;20288;-68
2023/06/01 07:26:29;;;;;;;3.42;3.13;;;20.40;60.10;;;;;;4980073;28;20277;-67
2023/06/01 07:28:56;;;;;;;3.58;3.28;;;20.40;60.10;;;;;;4971659;28;20200;-67
2023/06/01 07:31:23;;;;;;;3.55;3.25;;;20.30;60.10;;;;;;4972015;28;20556;-67
2023/06/01 07:33:49;;;;;;;3.45;3.17;;;20.40;60.20;;;;;;4987883;28;20252;-68
2023/06/01 07:36:15;;;;;;;3.08;2.75;;;20.40;60.20;;;;;;4975969;28;20197;-68
2023/06/01 07:38:41;;;;;;;3.20;2.90;;;20.40;60.20;;;;;;4975859;28;20704;-68
2023/06/01 07:41:09;;;;;;;3.55;3.22;;;20.40;60.20;;;;;;4971631;28;20178;-68
2023/06/01 07:43:37;;;;;;;3.25;2.95;;;20.40;60.30;;;;;;4973324;28;20186;-67
2023/06/01 07:46:03;;;;;;;3.40;3.10;;;20.40;60.30;;;;;;4971694;28;20194;-68
2023/06/01 07:48:29;;;;;;;4.18;3.40;;;20.40;60.40;;;;;;4987847;28;20263;-68
2023/06/01 07:50:54;;;;;;;3.55;3.15;;;20.40;60.30;;;;;;4994563;28;20689;-67
2023/06/01 07:53:20;;;;;;;3.60;3.30;;;20.40;60.40;;;;;;4971471;28;20201;-67
2023/06/01 07:55:49;;;;;;;3.70;3.40;;;20.40;60.50;;;;;;4968427;28;20198;-67
2023/06/01 07:58:15;;;;;;;3.88;3.17;;;20.40;60.40;;;;;;4972584;28;20292;-68
2023/06/01 08:00:41;;;;;;;3.38;2.97;;;20.40;60.30;;;;;;4971255;28;20272;-68
2023/06/01 08:03:07;;;;;;;3.83;3.53;;;20.40;60.20;;;;;;4971590;28;20190;-68
2023/06/01 08:05:35;;;;;;;3.65;3.08;;;20.40;60.20;;;;;;4979927;28;20228;-68
2023/06/01 08:08:02;;;;;;;3.88;3.58;;;20.40;60.10;;;;;;4987597;28;20249;-67
2023/06/01 08:10:28;;;;;;;3.53;3.20;;;20.50;60.10;;;;;;4968222;28;20195;-68
2023/06/01 08:12:56;;;;;;;4.13;3.67;;;20.50;60.10;;;;;;4968552;28;20244;-68
2023/06/01 08:15:23;;;;;;;3.42;3.13;;;20.50;60.00;;;;;;4974398;28;20226;-68
2023/06/01 08:17:50;;;;;;;4.22;3.78;;;20.60;60.10;;;;;;4975940;28;20219;-68
2023/06/01 08:20:21;;;;;;;4.03;3.42;;;20.60;60.00;;;;;;4972224;28;20208;-68
2023/06/01 08:22:48;;;;;;;3.28;2.97;;;20.60;60.00;;;;;;4995016;28;20190;-67
2023/06/01 08:25:14;;;;;;;4.18;3.78;;;20.60;59.90;;;;;;4991142;28;20186;-69
2023/06/01 08:27:41;;;;;;;3.97;3.35;;;20.60;59.90;;;;;;4991168;28;20201;-68
2023/06/01 08:30:08;;;;;;;4.07;3.67;;;20.60;59.90;;;;;;4992886;28;20202;-68
2023/06/01 08:32:33;;;;;;;3.97;3.30;;;20.60;59.90;;;;;;4980630;28;20236;-68
2023/06/01 08:35:00;;;;;;;4.10;3.67;;;20.60;59.90;;;;;;4991131;28;20194;-68
2023/06/01 08:37:26;;;;;;;4.07;3.38;;;20.60;59.90;;;;;;4974594;28;20209;-68
2023/06/01 08:39:51;;;;;;;4.20;3.80;;;20.60;59.90;;;;;;4982454;28;20215;-67
2023/06/01 08:42:33;;;;;;;3.47;3.17;;;20.60;59.80;;;;;;4982685;28;20189;-68
2023/06/01 08:45:03;;;;;;;4.15;3.45;;;20.70;59.90;;;;;;4991835;28;20233;-69
2023/06/01 08:47:31;;;;;;;3.58;3.28;;;20.70;59.90;;;;;;4980896;28;20205;-68
2023/06/01 08:49:59;;;;;;;4.65;3.28;;;20.70;60.10;;;;;;4982587;28;20194;-68
2023/06/01 08:52:28;;;;;;;4.10;3.70;;;20.70;59.90;;;;;;4979908;28;20196;-68
2023/06/01 08:54:55;;;;;;;5.20;3.97;;;20.70;60.00;;;;;;4977639;28;20662;-68
2023/06/01 08:57:21;;;;;;;4.15;3.75;;;20.70;60.00;;;;;;4977974;28;20213;-68
2023/06/01 08:59:47;;;;;;;4.80;3.53;;;20.70;60.00;;;;;;4978403;28;20354;-68
2023/06/01 09:02:15;;;;;;;3.95;3.63;;;20.70;60.10;;;;;;4974255;28;20620;-68
2023/06/01 09:04:44;;;;;;;4.50;3.95;;;20.80;60.10;;;;;;4974319;28;20186;-68
2023/06/01 09:07:12;;;;;;;4.00;3.60;;;20.70;60.10;;;;;;4978489;28;20220;-68
2023/06/01 09:09:37;;;;;;;3.65;3.35;;;20.80;60.20;;;;;;4979816;28;20204;-69
2023/06/01 09:12:29;;;;;;;4.75;3.58;;;20.80;60.20;;;;;;4973997;28;20189;-68
2023/06/01 09:15:08;;;;;;;3.50;3.20;;;20.70;60.10;;;;;;4980825;28;20189;-68
2023/06/01 09:17:35;;;;;;;5.50;4.00;;;20.80;60.30;;;;;;4977398;28;20267;-68
2023/06/01 09:20:01;;;;;;;3.55;3.25;;;20.80;60.30;;;;;;4988683;28;20220;-67
2023/06/01 09:22:45;;;;;;;3.78;3.30;;;20.80;60.30;;;;;;5003345;28;20194;-68
2023/06/01 09:25:13;;;;;;;4.10;3.67;;;20.80;60.30;;;;;;4990106;28;20236;-68
2023/06/01 09:27:51;;;;;;;4.55;3.58;;;20.80;60.20;;;;;;4996044;28;20288;-68
2023/06/01 09:30:19;;;;;;;3.88;3.47;;;20.80;60.30;;;;;;4973496;28;20272;-68
2023/06/01 09:32:50;;;;;;;4.43;3.30;;;20.80;60.40;;;;;;4980603;28;20550;-68
2023/06/01 09:35:37;;;;;;;3.80;3.50;;;20.80;60.40;;;;;;4974269;28;20193;-67
2023/06/01 09:38:05;;;;;;;4.00;3.50;;;20.80;60.30;;;;;;4981542;28;20213;-66
2023/06/01 09:40:33;;;;;;;3.70;3.38;;;20.80;60.30;;;;;;4980421;28;20214;-67
2023/06/01 09:42:59;;;;;;;4.72;3.60;;;20.80;60.30;;;;;;4971245;28;20204;-66
2023/06/01 09:45:25;;;;;;;3.67;3.38;;;20.80;60.40;;;;;;4985023;28;20211;-67
2023/06/01 09:47:52;;;;;;;4.00;3.53;;;20.80;60.30;;;;;;4985487;28;20213;-68
2023/06/01 09:50:35;;;;;;;4.00;3.60;;;20.80;60.40;;;;;;4989460;28;20221;-67
2023/06/01 09:53:01;;;;;;;4.72;3.72;;;20.80;60.30;;;;;;4981590;28;20190;-67
2023/06/01 09:55:28;;;;;;;4.35;3.67;;;20.80;60.40;;;;;;4978808;28;20271;-68
2023/06/01 09:58:21;;;;;;;6.55;4.10;;;20.80;60.50;;;;;;4977014;28;20251;-68
2023/06/01 10:00:51;;;;;;;3.47;3.13;;;20.80;60.50;;;;;;4985253;28;20581;-68
2023/06/01 10:03:19;;;;;;;3.80;3.50;;;20.80;60.40;;;;;;4973678;28;20748;-68
2023/06/01 10:05:46;;;;;;;3.88;3.55;;;20.80;60.50;;;;;;4989685;28;20188;-68
2023/06/01 10:08:15;;;;;;;4.40;4.00;;;20.80;60.40;;;;;;4989168;28;20213;-69
2023/06/01 10:10:46;;;;;;;3.95;3.30;;;20.80;60.40;;;;;;4973601;28;20197;-68
2023/06/01 10:13:12;;;;;;;3.58;3.25;;;20.90;60.60;;;;;;4973371;28;20292;-68
2023/06/01 10:15:38;;;;;;;4.45;4.05;;;20.80;60.50;;;;;;4987727;28;20197;-67
2023/06/01 10:18:05;;;;;;;3.97;3.58;;;20.90;60.60;;;;;;4975425;28;20219;-68
2023/06/01 10:20:36;;;;;;;4.25;3.60;;;20.80;60.50;;;;;;4986530;28;20208;-68
2023/06/01 10:23:03;;;;;;;4.03;3.25;;;20.80;60.50;;;;;;4984531;28;20279;-67
2023/06/01 10:25:43;;;;;;;5.93;3.88;;;20.80;60.40;;;;;;4985857;28;20208;-68
2023/06/01 10:28:12;;;;;;;4.00;3.53;;;20.80;60.50;;;;;;4965473;28;20214;-68
2023/06/01 10:30:39;;;;;;;3.70;3.38;;;20.90;60.60;;;;;;4985951;28;20189;-68
2023/06/01 10:33:06;;;;;;;4.05;3.70;;;20.90;60.70;;;;;;4975210;28;20196;-68
2023/06/01 10:35:32;;;;;;;3.95;3.55;;;20.90;60.60;;;;;;4987876;28;20198;-68
2023/06/01 10:38:07;;;;;;;4.25;3.83;;;20.90;60.60;;;;;;4978892;28;20223;-67
2023/06/01 10:40:37;;;;;;;4.20;3.78;;;20.90;60.70;;;;;;4979881;28;20216;-67
2023/06/01 10:43:04;;;;;;;3.70;3.40;;;20.90;60.70;;;;;;4989268;28;20537;-66
2023/06/01 10:45:42;;;;;;;3.60;3.30;;;20.90;60.60;;;;;;4993225;28;20181;-68
2023/06/01 10:48:11;;;;;;;4.20;3.80;;;20.90;60.60;;;;;;4998864;28;20208;-68
2023/06/01 10:50:39;;;;;;;3.65;3.13;;;20.90;60.70;;;;;;4988688;28;20186;-67
2023/06/01 10:53:30;;;;;;;4.07;3.70;;;20.90;60.60;;;;;;4991821;28;20644;-68
2023/06/01 10:56:28;;;;;;;4.10;3.78;;;21.00;60.80;;;;;;4983857;28;20189;-68
2023/06/01 10:59:09;;;;;;;3.75;3.45;;;20.90;60.70;;;;;;4979397;28;20200;-68
2023/06/01 11:01:41;;;;;;;4.35;3.90;;;20.90;60.80;;;;;;4977071;28;20185;-68
2023/06/01 11:04:07;;;;;;;3.97;3.65;;;21.00;61.00;;;;;;4991027;28;20233;-68
2023/06/01 11:06:37;;;;;;;5.55;3.80;;;21.00;61.30;;;;;;4988407;28;20192;-67
2023/06/01 11:09:06;;;;;;;4.80;3.92;;;21.00;61.10;;;;;;4980300;28;20272;-68
2023/06/01 11:11:55;;;;;;;4.72;3.80;;;21.00;61.00;;;;;;4992920;28;20204;-68
2023/06/01 11:14:29;;;;;;;4.25;3.85;;;21.00;60.90;;;;;;4972840;28;21004;-68
2023/06/01 11:16:56;;;;;;;5.43;4.10;;;21.00;61.00;;;;;;5003718;28;20211;-69
2023/06/01 11:19:26;;;;;;;5.32;4.47;;;21.00;61.00;;;;;;4996793;28;20210;-68
2023/06/01 11:22:04;;;;;;;4.72;3.40;;;21.00;61.00;;;;;;4988474;28;20197;-68
2023/06/01 11:24:38;;;;;;;4.97;4.32;;;21.00;61.00;;;;;;4967943;28;20253;-68
2023/06/01 11:27:10;;;;;;;4.22;3.83;;;21.00;61.10;;;;;;4996126;28;20271;-68
2023/06/01 11:29:36;;;;;;;3.90;3.60;;;21.00;61.00;;;;;;4984473;28;20197;-68
2023/06/01 11:32:05;;;;;;;4.35;3.97;;;21.00;61.00;;;;;;4972634;28;20193;-67
2023/06/01 11:34:38;;;;;;;4.55;4.13;;;21.00;61.00;;;;;;4977015;28;20194;-68
2023/06/01 11:37:06;;;;;;;4.18;3.78;;;21.00;61.00;;;;;;4971866;28;20209;-69
2023/06/01 11:39:32;;;;;;;4.07;3.50;;;21.00;61.00;;;;;;4983718;28;20282;-68
2023/06/01 11:42:15;;;;;;;4.40;3.80;;;21.00;61.00;;;;;;4975640;28;20186;-69
2023/06/01 11:44:55;;;;;;;4.38;3.97;;;21.00;61.10;;;;;;4970134;28;20705;-68
2023/06/01 11:47:21;;;;;;;4.15;3.75;;;21.00;61.00;;;;;;4995987;28;20209;-68
2023/06/01 11:49:50;;;;;;;4.03;3.65;;;21.00;60.90;;;;;;4971714;28;20659;-68
2023/06/01 11:52:20;;;;;;;4.00;3.70;;;21.00;61.00;;;;;;4991819;28;20193;-68
2023/06/01 11:54:51;;;;;;;4.25;3.80;;;21.00;61.20;;;;;;4980168;28;20202;-68
2023/06/01 11:57:19;;;;;;;4.90;4.15;;;21.00;62.00;;;;;;4991662;28;20280;-68
2023/06/01 11:59:47;;;;;;;4.47;3.63;;;21.00;61.10;;;;;;4997004;28;20227;-68
2023/06/01 12:02:27;;;;;;;4.13;3.72;;;21.00;61.20;;;;;;5002185;28;20192;-68
2023/06/01 12:05:08;;;;;;;4.40;3.75;;;21.00;61.10;;;;;;4980154;28;20198;-68
2023/06/01 12:07:50;;;;;;;3.88;3.45;;;21.00;61.00;;;;;;4987684;28;20204;-68
2023/06/01 12:10:19;;;;;;;5.18;3.75;;;21.10;61.10;;;;;;4979770;28;20204;-68
2023/06/01 12:12:46;;;;;;;4.30;3.90;;;21.10;61.00;;;;;;4994960;28;20189;-68
2023/06/01 12:15:18;;;;;;;5.53;3.92;;;21.10;61.00;;;;;;4986685;28;20208;-68
2023/06/01 12:17:55;;;;;;;4.50;4.00;;;21.10;61.00;;;;;;4992589;28;20216;-68
2023/06/01 12:20:54;;;;;;;4.45;3.90;;;21.10;61.10;;;;;;4976172;28;20212;-69
2023/06/01 12:23:20;;;;;;;4.18;3.78;;;21.10;61.10;;;;;;4975743;28;20213;-66
2023/06/01 12:25:59;;;;;;;3.90;3.60;;;21.10;61.10;;;;;;4980986;28;20186;-67
2023/06/01 12:28:26;;;;;;;4.25;3.67;;;21.10;61.00;;;;;;4983224;28;20216;-68
2023/06/01 12:31:12;;;;;;;4.07;3.78;;;21.10;61.10;;;;;;4991347;28;20244;-68
2023/06/01 12:33:40;;;;;;;4.40;4.00;;;21.10;60.90;;;;;;4984407;28;20228;-68
2023/06/01 12:36:08;;;;;;;4.78;4.00;;;21.10;61.10;;;;;;4994616;28;20291;-69
2023/06/01 12:38:50;;;;;;;4.38;3.97;;;21.10;61.10;;;;;;4990597;28;20301;-68
2023/06/01 12:41:17;;;;;;;5.53;4.13;;;21.10;61.20;;;;;;5000664;28;20193;-69
2023/06/01 12:43:50;;;;;;;4.50;4.10;;;21.10;61.20;;;;;;4996944;28;20213;-68
2023/06/01 12:46:25;;;;;;;4.15;3.75;;;21.10;61.20;;;;;;4964744;28;20258;-69
2023/06/01 12:49:11;;;;;;;4.93;4.38;;;21.10;61.20;;;;;;4974799;28;20295;-67
2023/06/01 12:51:38;;;;;;;4.90;3.88;;;21.10;61.20;;;;;;4970996;28;20276;-68
2023/06/01 12:54:04;;;;;;;3.92;3.53;;;21.10;61.10;;;;;;4986439;28;20235;-68
2023/06/01 12:56:30;;;;;;;4.88;4.30;;;21.10;61.20;;;;;;4990524;28;20185;-68
2023/06/01 12:58:55;;;;;;;4.13;3.72;;;21.10;61.00;;;;;;4987401;28;20261;-68
2023/06/01 13:01:21;;;;;;;4.22;3.83;;;21.10;61.20;;;;;;4998800;28;20193;-68